logo
Rechercher aéroport 
image banner adimage banner adimage banner ad
image banner ad

LLBL - Beilinson Hospital

Situé à פ"ת, Israel

ICAO - , IATA -

Données fournies par Airmate  

Information générale

Coordonnées: N32°5'13" E34°51'54"
Élévation : 114 feet MSL.
Variation magnétique : 5° East
Voir autres Aéroports à Tel Aviv District

Données opérationnelles

Special qualification required
Heure actuelle UTC:
Heure actuelle locale:
Météo à : LLBG - Tel-Aviv/Ben-Gurion ( 9 km )
TAF: TAF LLBG 171705Z 1718/1818 VRB04KT CAVOK BECMG 1720/1722 9999 SCT020 PROB40 TEMPO 1800/1805 15005KT BKN017 BECMG 1807/1809 31010KT CAVOK BECMG 1815/1817 VRB04KT TX32/1810Z TN23/1803Z
Voir NOTAMs / SUP AIP / TFR affectant cet aéroport [VIEW]
Fréquences de communication: [VIEW]

Pistes:

Coordonnées de l'aéroport

Adresse: פ"ת Israel

Vue satellite de LLBL